createdAt,value
2018-04-29T00:02:10.264Z,96795.85
2018-04-29T00:04:41.243Z,96789.48
2018-04-29T00:07:12.241Z,96787.45
2018-04-29T00:09:43.217Z,96790.73
2018-04-29T00:12:14.259Z,96796.62
2018-04-29T00:14:45.250Z,96798.17
2018-04-29T00:17:16.283Z,96797.91
2018-04-29T00:19:47.302Z,96791.80
2018-04-29T00:22:18.382Z,96797.30
2018-04-29T00:24:49.402Z,96797.13
2018-04-29T00:27:20.406Z,96795.91
2018-04-29T00:29:51.401Z,96797.03
2018-04-29T00:32:22.386Z,96801.71
2018-04-29T00:34:53.358Z,96797.67
2018-04-29T00:37:24.418Z,96801.91
2018-04-29T00:39:55.461Z,96796.42
2018-04-29T00:42:26.542Z,96801.73
2018-04-29T00:44:57.555Z,96800.05
2018-04-29T00:47:28.589Z,96806.64
2018-04-29T00:49:59.602Z,96804.06
2018-04-29T00:52:30.598Z,96796.42
2018-04-29T00:55:01.757Z,96799.36
2018-04-29T00:57:32.768Z,96797.49
2018-04-29T01:00:03.782Z,96798.57
2018-04-29T01:02:34.778Z,96813.73
2018-04-29T01:05:05.867Z,96815.52
2018-04-29T01:07:36.969Z,96815.66
2018-04-29T01:10:07.946Z,96817.22
2018-04-29T01:12:38.975Z,96822.91
2018-04-29T01:15:10.027Z,96835.33
2018-04-29T01:17:41.057Z,96843.97
2018-04-29T01:20:12.041Z,96853.68
2018-04-29T01:22:43.105Z,96861.95
2018-04-29T01:25:14.068Z,96863.08
2018-04-29T01:27:45.113Z,96864.29
2018-04-29T01:30:16.109Z,96869.31
2018-04-29T01:32:47.164Z,96870.97
2018-04-29T01:35:18.188Z,96880.08
2018-04-29T01:37:49.185Z,96876.97
2018-04-29T01:40:20.242Z,96880.27
2018-04-29T01:42:51.263Z,96874.69
2018-04-29T01:45:22.265Z,96879.17
2018-04-29T01:47:53.384Z,96881.88
2018-04-29T01:50:24.429Z,96877.81
2018-04-29T01:52:55.456Z,96883.08
2018-04-29T01:55:26.471Z,96889.83
2018-04-29T01:57:57.484Z,96890.61
2018-04-29T02:00:28.487Z,96895.35
2018-04-29T02:02:59.490Z,96905.73
2018-04-29T02:05:30.535Z,96905.23
2018-04-29T02:08:01.567Z,96912.14
2018-04-29T02:10:32.551Z,96911.48
2018-04-29T02:13:03.583Z,96912.59
2018-04-29T02:15:34.610Z,96917.78
2018-04-29T02:18:05.629Z,96920.03
2018-04-29T02:20:36.639Z,96928.78
2018-04-29T02:23:07.675Z,96933.72
2018-04-29T02:25:38.740Z,96929.34
2018-04-29T02:28:09.768Z,96923.45
2018-04-29T02:30:40.791Z,96923.48
2018-04-29T02:33:11.876Z,96922.60
2018-04-29T02:35:42.848Z,96926.09
2018-04-29T02:38:18.272Z,96920.48
2018-04-29T02:40:49.330Z,96933.88
2018-04-29T02:43:20.339Z,96939.17
2018-04-29T02:45:51.397Z,96941.42
2018-04-29T02:48:22.398Z,96939.56
2018-04-29T02:50:53.449Z,96921.16
2018-04-29T02:53:24.494Z,96919.30
2018-04-29T02:55:55.515Z,96914.58
2018-04-29T02:58:26.493Z,96910.89
2018-04-29T03:00:57.481Z,96912.61
2018-04-29T03:03:28.455Z,96907.84
2018-04-29T03:05:59.514Z,96903.27
2018-04-29T03:08:30.506Z,96901.16
2018-04-29T03:11:01.498Z,96905.25
2018-04-29T03:13:32.496Z,96913.59
2018-04-29T03:16:03.507Z,96911.08
2018-04-29T03:18:34.549Z,96911.36
2018-04-29T03:21:05.622Z,96903.57
2018-04-29T03:23:36.618Z,96901.72
2018-04-29T03:26:07.643Z,96897.58
2018-04-29T03:28:38.656Z,96896.90
2018-04-29T03:31:09.731Z,96895.66
2018-04-29T03:33:40.768Z,96884.33
2018-04-29T03:36:11.813Z,96887.83
2018-04-29T03:38:42.828Z,96886.75
2018-04-29T03:41:13.845Z,96889.69
2018-04-29T03:43:44.884Z,96887.44
2018-04-29T03:46:15.946Z,96888.00
2018-04-29T03:48:47.008Z,96878.52
2018-04-29T03:51:18.078Z,96881.41
2018-04-29T03:53:49.087Z,96870.59
2018-04-29T03:56:20.144Z,96878.24
2018-04-29T03:59:03.505Z,96877.17
2018-04-29T04:01:51.288Z,96886.64
2018-04-29T04:04:17.880Z,96875.14
2018-04-29T04:06:48.891Z,96880.69
2018-04-29T04:09:19.886Z,96883.66
2018-04-29T04:11:50.896Z,96903.91
2018-04-29T04:14:21.908Z,96892.70
2018-04-29T04:16:52.888Z,96887.48
2018-04-29T04:19:23.896Z,96880.09
2018-04-29T04:21:54.922Z,96885.18
2018-04-29T04:24:25.938Z,96892.73
2018-04-29T04:26:56.936Z,96895.05
2018-04-29T04:29:27.978Z,96893.66
2018-04-29T04:31:58.980Z,96887.89
2018-04-29T04:34:29.992Z,96889.94
2018-04-29T04:37:00.992Z,96896.96
2018-04-29T04:39:31.976Z,96892.66
2018-04-29T04:42:03.054Z,96897.81
2018-04-29T04:44:34.016Z,96896.20
2018-04-29T04:47:04.994Z,96900.89
2018-04-29T04:49:35.971Z,96903.13
2018-04-29T04:52:06.973Z,96909.72
2018-04-29T04:54:37.948Z,96910.28
2018-04-29T04:57:08.955Z,96911.20
2018-04-29T04:59:39.995Z,96910.75
2018-04-29T05:02:11.062Z,96908.73
2018-04-29T05:04:42.081Z,96899.72
2018-04-29T05:07:13.114Z,96904.57
2018-04-29T05:09:44.095Z,96902.55
2018-04-29T05:12:15.098Z,96896.73
2018-04-29T05:14:46.123Z,96900.63
2018-04-29T05:17:17.138Z,96898.78
2018-04-29T05:19:48.233Z,96897.97
2018-04-29T05:22:19.245Z,96898.11
2018-04-29T05:24:50.272Z,96893.69
2018-04-29T05:27:24.266Z,96895.23
2018-04-29T05:29:57.216Z,96902.97
2018-04-29T05:32:30.189Z,96908.70
2018-04-29T05:35:04.231Z,96912.09
2018-04-29T05:37:37.218Z,96911.05
2018-04-29T05:40:10.384Z,96908.33
2018-04-29T05:42:44.090Z,96908.30
2018-04-29T05:45:17.254Z,96914.01
2018-04-29T05:47:48.358Z,96911.23
2018-04-29T05:50:19.443Z,96907.70
2018-04-29T05:52:50.473Z,96906.69
2018-04-29T05:55:21.574Z,96912.09
2018-04-29T05:57:52.634Z,96907.42
2018-04-29T06:00:23.671Z,96902.89
2018-04-29T06:02:54.645Z,96909.25
2018-04-29T06:05:25.660Z,96913.86
2018-04-29T06:07:56.654Z,96908.34
2018-04-29T06:10:27.632Z,96915.55
2018-04-29T06:12:58.667Z,96908.35
2018-04-29T06:15:29.676Z,96906.41
2018-04-29T06:18:00.756Z,96907.73
2018-04-29T06:20:31.788Z,96909.97
2018-04-29T06:23:02.789Z,96906.13
2018-04-29T06:25:33.806Z,96909.09
2018-04-29T06:28:04.814Z,96902.09
2018-04-29T06:30:35.853Z,96899.00
2018-04-29T06:33:06.896Z,96890.19
2018-04-29T06:35:37.972Z,96882.00
2018-04-29T06:38:09.033Z,96879.97
2018-04-29T06:40:40.082Z,96874.51
2018-04-29T06:43:11.219Z,96868.78
2018-04-29T06:45:42.241Z,96870.95
2018-04-29T06:48:13.278Z,96864.66
2018-04-29T06:50:44.316Z,96860.37
2018-04-29T06:53:15.425Z,96858.44
2018-04-29T06:55:46.610Z,96851.77
2018-04-29T06:58:17.720Z,96845.70
2018-04-29T07:00:48.825Z,96842.16
2018-04-29T07:03:20.005Z,96842.43
2018-04-29T07:05:51.042Z,96839.77
2018-04-29T07:08:22.148Z,96845.20
2018-04-29T07:10:53.123Z,96847.65
2018-04-29T07:13:24.166Z,96843.32
2018-04-29T07:15:55.152Z,96832.99
2018-04-29T07:18:26.211Z,96831.67
2018-04-29T07:20:57.199Z,96840.45
2018-04-29T07:23:28.273Z,96827.82
2018-04-29T07:25:59.388Z,96827.36
2018-04-29T07:28:30.371Z,96825.39
2018-04-29T07:31:01.407Z,96823.80
2018-04-29T07:33:32.365Z,96821.92
2018-04-29T07:36:03.468Z,96822.70
2018-04-29T07:38:34.516Z,96814.17
2018-04-29T07:41:05.514Z,96809.13
2018-04-29T07:43:36.603Z,96804.92
2018-04-29T07:46:07.632Z,96814.31
2018-04-29T07:48:38.635Z,96806.19
2018-04-29T07:51:09.708Z,96807.45
2018-04-29T07:53:40.691Z,96800.17
2018-04-29T07:56:11.732Z,96795.20
2018-04-29T07:58:42.702Z,96797.47
2018-04-29T08:01:13.751Z,96800.30
2018-04-29T08:03:44.782Z,96805.10
2018-04-29T08:06:15.828Z,96803.28
2018-04-29T08:08:46.904Z,96801.42
2018-04-29T08:11:17.952Z,96804.73
2018-04-29T08:13:49.014Z,96810.02
2018-04-29T08:16:20.138Z,96798.28
2018-04-29T08:18:51.201Z,96794.37
2018-04-29T08:21:22.326Z,96777.94
2018-04-29T08:23:53.349Z,96769.48
2018-04-29T08:26:24.383Z,96770.73
2018-04-29T08:28:55.422Z,96771.61
2018-04-29T08:31:26.457Z,96777.84
2018-04-29T08:33:57.520Z,96776.66
2018-04-29T08:36:28.557Z,96776.06
2018-04-29T08:38:59.534Z,96759.94
2018-04-29T08:41:30.537Z,96755.13
2018-04-29T08:44:01.571Z,96766.73
2018-04-29T08:46:32.740Z,96761.06
2018-04-29T08:49:03.826Z,96752.52
2018-04-29T08:51:34.802Z,96754.45
2018-04-29T08:54:05.899Z,96761.02
2018-04-29T08:56:37.022Z,96767.37
2018-04-29T08:59:08.076Z,96764.17
2018-04-29T09:01:39.176Z,96758.25
2018-04-29T09:04:10.229Z,96755.89
2018-04-29T09:06:41.286Z,96752.05
2018-04-29T09:09:12.318Z,96748.04
2018-04-29T09:11:43.368Z,96741.02
2018-04-29T09:14:14.387Z,96739.80
2018-04-29T09:16:45.539Z,96735.63
2018-04-29T09:19:16.461Z,96719.58
2018-04-29T09:21:47.444Z,96717.38
2018-04-29T09:24:18.424Z,96710.77
2018-04-29T09:26:49.422Z,96705.98
2018-04-29T09:29:20.432Z,96707.11
2018-04-29T09:31:51.416Z,96705.90
2018-04-29T09:34:22.449Z,96702.25
2018-04-29T09:36:53.542Z,96704.06
2018-04-29T09:39:24.583Z,96706.56
2018-04-29T09:41:55.639Z,96706.50
2018-04-29T09:44:26.778Z,96700.67
2018-04-29T09:46:57.892Z,96701.05
2018-04-29T09:49:28.982Z,96694.11
2018-04-29T09:52:00.084Z,96695.93
2018-04-29T09:54:31.132Z,96684.80
2018-04-29T09:57:02.300Z,96684.83
2018-04-29T09:59:33.339Z,96681.96
2018-04-29T10:02:04.512Z,96684.77
2018-04-29T10:04:35.605Z,96679.80
2018-04-29T10:07:06.728Z,96667.84
2018-04-29T10:09:37.855Z,96657.52
2018-04-29T10:12:08.846Z,96656.52
2018-04-29T10:14:39.878Z,96647.87
2018-04-29T10:17:10.897Z,96651.55
2018-04-29T10:19:41.906Z,96642.86
2018-04-29T10:22:12.903Z,96645.38
2018-04-29T10:24:44.000Z,96637.73
2018-04-29T10:27:15.021Z,96634.92
2018-04-29T10:29:45.996Z,96641.64
2018-04-29T10:32:17.065Z,96630.70
2018-04-29T10:34:48.087Z,96626.41
2018-04-29T10:37:19.090Z,96622.13
2018-04-29T10:39:50.095Z,96620.36
2018-04-29T10:42:21.104Z,96622.49
2018-04-29T10:44:52.164Z,96619.92
2018-04-29T10:47:23.191Z,96607.55
2018-04-29T10:49:54.296Z,96607.73
2018-04-29T10:52:25.361Z,96606.47
2018-04-29T10:54:56.411Z,96602.39
2018-04-29T10:57:27.421Z,96595.19
2018-04-29T10:59:58.536Z,96591.67
2018-04-29T11:02:29.613Z,96587.98
2018-04-29T11:05:00.648Z,96580.97
2018-04-29T11:07:31.688Z,96585.41
2018-04-29T11:10:02.773Z,96578.11
2018-04-29T11:12:33.805Z,96570.73
2018-04-29T11:15:04.884Z,96586.05
2018-04-29T11:17:35.924Z,96586.59
2018-04-29T11:20:06.964Z,96589.41
2018-04-29T11:22:38.037Z,96589.34
2018-04-29T11:25:09.046Z,96587.63
2018-04-29T11:27:40.121Z,96583.58
2018-04-29T11:30:11.226Z,96585.44
2018-04-29T11:32:42.238Z,96591.08
2018-04-29T11:35:13.257Z,96583.80
2018-04-29T11:37:44.274Z,96573.56
2018-04-29T11:40:15.319Z,96570.13
2018-04-29T11:42:46.360Z,96568.15
2018-04-29T11:45:17.397Z,96566.56
2018-04-29T11:47:48.477Z,96566.95
2018-04-29T11:50:19.532Z,96562.50
2018-04-29T11:52:50.581Z,96551.47
2018-04-29T11:55:21.621Z,96555.74
2018-04-29T11:57:52.654Z,96549.99
2018-04-29T12:00:23.629Z,96546.46
2018-04-29T12:02:54.661Z,96547.02
2018-04-29T12:05:25.702Z,96542.08
2018-04-29T12:07:56.726Z,96536.49
2018-04-29T12:10:27.731Z,96530.45
2018-04-29T12:12:58.728Z,96535.30
2018-04-29T12:15:30.660Z,96529.73
2018-04-29T12:18:01.700Z,96525.50
2018-04-29T12:20:32.662Z,96517.28
2018-04-29T12:23:03.716Z,96510.08
2018-04-29T12:25:34.760Z,96508.05
2018-04-29T12:28:05.763Z,96511.17
2018-04-29T12:30:43.808Z,96505.86
2018-04-29T12:33:14.773Z,96498.39
2018-04-29T12:35:45.835Z,96503.30
2018-04-29T12:38:16.844Z,96497.65
2018-04-29T12:40:47.886Z,96498.88
2018-04-29T12:43:18.872Z,96496.19
2018-04-29T12:45:49.884Z,96493.37
2018-04-29T12:48:20.882Z,96484.81
2018-04-29T12:50:51.921Z,96478.88
2018-04-29T12:53:22.886Z,96473.18
2018-04-29T12:55:53.916Z,96475.79
2018-04-29T12:58:24.917Z,96476.86
2018-04-29T13:00:55.940Z,96471.13
2018-04-29T13:03:26.989Z,96464.42
2018-04-29T13:05:57.978Z,96460.92
2018-04-29T13:08:29.051Z,96458.67
2018-04-29T13:11:00.130Z,96452.73
2018-04-29T13:13:31.153Z,96444.33
2018-04-29T13:16:02.167Z,96445.78
2018-04-29T13:18:33.169Z,96436.84
2018-04-29T13:21:04.179Z,96427.20
2018-04-29T13:23:35.157Z,96421.23
2018-04-29T13:26:06.192Z,96423.36
2018-04-29T13:28:37.229Z,96411.61
2018-04-29T13:31:08.239Z,96406.50
2018-04-29T13:33:39.250Z,96408.48
2018-04-29T13:36:10.289Z,96408.95
2018-04-29T13:38:41.292Z,96400.21
2018-04-29T13:41:12.344Z,96394.28
2018-04-29T13:43:43.370Z,96387.06
2018-04-29T13:46:14.353Z,96391.11
2018-04-29T13:48:45.373Z,96381.96
2018-04-29T13:51:16.399Z,96377.96
2018-04-29T13:53:47.415Z,96364.78
2018-04-29T13:56:18.414Z,96370.05
2018-04-29T13:58:49.506Z,96365.63
2018-04-29T14:01:20.426Z,96357.43
2018-04-29T14:03:51.422Z,96344.68
2018-04-29T14:06:22.420Z,96336.76
2018-04-29T14:08:53.451Z,96328.52
2018-04-29T14:11:24.458Z,96322.72
2018-04-29T14:13:55.440Z,96320.67
2018-04-29T14:16:26.464Z,96316.23
2018-04-29T14:18:57.439Z,96316.05
2018-04-29T14:21:28.477Z,96309.20
2018-04-29T14:23:59.501Z,96307.05
2018-04-29T14:26:30.498Z,96302.03
2018-04-29T14:29:01.523Z,96301.02
2018-04-29T14:31:32.567Z,96286.55
2018-04-29T14:34:03.584Z,96293.36
2018-04-29T14:36:34.631Z,96283.63
2018-04-29T14:39:05.555Z,96284.48
2018-04-29T14:41:36.574Z,96275.19
2018-04-29T14:44:07.609Z,96280.91
2018-04-29T14:46:38.598Z,96262.48
2018-04-29T14:49:09.604Z,96264.57
2018-04-29T14:51:40.675Z,96270.41
2018-04-29T14:54:11.739Z,96270.45
2018-04-29T14:56:42.699Z,96269.34
2018-04-29T14:59:13.675Z,96260.93
2018-04-29T15:01:44.661Z,96262.30
2018-04-29T15:04:15.756Z,96261.07
2018-04-29T15:06:46.707Z,96243.65
2018-04-29T15:09:17.747Z,96246.70
2018-04-29T15:11:48.732Z,96252.74
2018-04-29T15:14:19.784Z,96247.03
2018-04-29T15:16:50.813Z,96247.46
2018-04-29T15:19:21.823Z,96239.94
2018-04-29T15:21:52.798Z,96239.17
2018-04-29T15:24:23.840Z,96239.78
2018-04-29T15:26:54.824Z,96238.53
2018-04-29T15:29:25.869Z,96234.73
2018-04-29T15:31:57.222Z,96235.84
2018-04-29T15:34:35.312Z,96225.66
2018-04-29T15:37:06.327Z,96219.80
2018-04-29T15:39:37.366Z,96216.40
2018-04-29T15:42:08.372Z,96210.63
2018-04-29T15:44:39.371Z,96212.75
2018-04-29T15:47:10.388Z,96204.15
2018-04-29T15:49:48.221Z,96203.79
2018-04-29T15:52:19.232Z,96202.48
2018-04-29T15:54:50.262Z,96194.08
2018-04-29T15:57:21.340Z,96181.96
2018-04-29T15:59:52.342Z,96177.78
2018-04-29T16:02:23.362Z,96174.22
2018-04-29T16:04:54.396Z,96169.33
2018-04-29T16:07:25.365Z,96168.31
2018-04-29T16:09:56.398Z,96165.16
2018-04-29T16:12:27.372Z,96164.02
2018-04-29T16:14:58.416Z,96159.60
2018-04-29T16:17:29.419Z,96158.94
2018-04-29T16:20:00.463Z,96162.20
2018-04-29T16:22:31.470Z,96159.86
2018-04-29T16:25:02.552Z,96155.91
2018-04-29T16:27:33.536Z,96152.59
2018-04-29T16:30:04.565Z,96153.55
2018-04-29T16:32:35.605Z,96147.16
2018-04-29T16:35:06.608Z,96144.73
2018-04-29T16:37:37.605Z,96149.06
2018-04-29T16:40:08.585Z,96145.50
2018-04-29T16:42:39.672Z,96141.83
2018-04-29T16:45:10.665Z,96143.72
2018-04-29T16:47:41.654Z,96134.63
2018-04-29T16:50:12.613Z,96134.57
2018-04-29T16:52:43.661Z,96131.63
2018-04-29T16:55:14.609Z,96128.50
2018-04-29T16:57:45.647Z,96121.70
2018-04-29T17:00:16.603Z,96120.41
2018-04-29T17:02:47.663Z,96118.42
2018-04-29T17:05:18.660Z,96121.63
2018-04-29T17:07:49.693Z,96119.19
2018-04-29T17:10:20.734Z,96123.69
2018-04-29T17:12:51.777Z,96119.90
2018-04-29T17:15:22.815Z,96112.41
2018-04-29T17:17:53.854Z,96106.66
2018-04-29T17:20:24.854Z,96101.61
2018-04-29T17:22:55.818Z,96106.27
2018-04-29T17:25:26.830Z,96100.50
2018-04-29T17:27:57.863Z,96103.01
2018-04-29T17:30:28.934Z,96098.97
2018-04-29T17:32:59.953Z,96097.98
2018-04-29T17:35:30.965Z,96086.00
2018-04-29T17:38:02.019Z,96080.80
2018-04-29T17:40:33.032Z,96082.14
2018-04-29T17:43:04.073Z,96074.58
2018-04-29T17:45:35.169Z,96071.42
2018-04-29T17:48:06.232Z,96069.27
2018-04-29T17:50:37.270Z,96064.20
2018-04-29T17:53:08.276Z,96066.84
2018-04-29T17:55:39.311Z,96061.78
2018-04-29T17:58:10.325Z,96065.17
2018-04-29T18:00:41.313Z,96051.64
2018-04-29T18:03:12.349Z,96051.34
2018-04-29T18:05:43.342Z,96053.97
2018-04-29T18:08:14.382Z,96054.31
2018-04-29T18:10:45.391Z,96057.51
2018-04-29T18:13:16.417Z,96057.23
2018-04-29T18:15:47.453Z,96051.92
2018-04-29T18:18:18.542Z,96058.38
2018-04-29T18:20:49.538Z,96056.12
2018-04-29T18:23:20.538Z,96059.91
2018-04-29T18:25:51.512Z,96056.73
2018-04-29T18:28:22.550Z,96054.88
2018-04-29T18:30:53.597Z,96055.55
2018-04-29T18:33:24.599Z,96047.38
2018-04-29T18:35:55.595Z,96046.34
2018-04-29T18:38:26.586Z,96053.58
2018-04-29T18:40:57.642Z,96047.28
2018-04-29T18:43:28.681Z,96048.93
2018-04-29T18:45:59.774Z,96051.70
2018-04-29T18:48:30.838Z,96045.50
2018-04-29T18:51:02.137Z,96050.54
2018-04-29T18:53:32.864Z,96047.97
2018-04-29T18:56:04.028Z,96049.81
2018-04-29T18:58:35.109Z,96056.99
2018-04-29T19:01:06.123Z,96044.06
2018-04-29T19:03:37.172Z,96055.90
2018-04-29T19:06:08.170Z,96054.70
2018-04-29T19:08:39.188Z,96057.27
2018-04-29T19:11:10.250Z,96065.61
2018-04-29T19:13:41.291Z,96062.25
2018-04-29T19:16:12.373Z,96057.58
2018-04-29T19:18:43.439Z,96052.67
2018-04-29T19:21:14.454Z,96053.87
2018-04-29T19:23:45.419Z,96047.64
2018-04-29T19:26:16.476Z,96050.17
2018-04-29T19:28:47.510Z,96048.32
2018-04-29T19:31:18.648Z,96051.31
2018-04-29T19:33:49.622Z,96054.30
2018-04-29T19:36:20.632Z,96045.17
2018-04-29T19:38:51.662Z,96044.09
2018-04-29T19:41:22.675Z,96043.80
2018-04-29T19:43:53.718Z,96043.11
2018-04-29T19:46:24.730Z,96039.68
2018-04-29T19:48:55.718Z,96040.34
2018-04-29T19:51:26.798Z,96039.34
2018-04-29T19:53:57.791Z,96035.37
2018-04-29T19:56:28.822Z,96031.66
2018-04-29T19:58:59.828Z,96037.52
2018-04-29T20:01:31.840Z,96036.53
2018-04-29T20:04:02.874Z,96027.23
2018-04-29T20:06:33.905Z,96025.58
2018-04-29T20:09:04.920Z,96021.69
2018-04-29T20:11:36.067Z,96022.88
2018-04-29T20:14:07.011Z,96016.27
2018-04-29T20:16:41.503Z,96014.45
2018-04-29T20:19:12.700Z,96013.18
2018-04-29T20:21:43.768Z,96008.72
2018-04-29T20:24:14.746Z,96004.21
2018-04-29T20:26:45.773Z,96002.73
2018-04-29T20:29:16.828Z,95995.73
2018-04-29T20:31:47.868Z,95999.61
2018-04-29T20:34:18.884Z,95994.49
2018-04-29T20:36:49.883Z,95994.39
2018-04-29T20:39:20.901Z,95995.79
2018-04-29T20:41:51.944Z,95989.24
2018-04-29T20:44:22.964Z,95981.84
2018-04-29T20:46:53.955Z,95978.70
2018-04-29T20:49:24.998Z,95974.92
2018-04-29T20:51:55.977Z,95975.33
2018-04-29T20:54:27.036Z,95965.78
2018-04-29T20:56:58.080Z,95962.77
2018-04-29T20:59:29.208Z,95954.03
2018-04-29T21:02:00.235Z,95945.64
2018-04-29T21:04:31.252Z,95946.98
2018-04-29T21:07:02.302Z,95939.41
2018-04-29T21:09:33.301Z,95948.61
2018-04-29T21:12:04.352Z,95940.80
2018-04-29T21:14:35.349Z,95947.84
2018-04-29T21:17:06.364Z,95942.55
2018-04-29T21:19:37.386Z,95943.95
2018-04-29T21:22:08.440Z,95945.38
2018-04-29T21:24:39.446Z,95938.57
2018-04-29T21:27:10.456Z,95933.10
2018-04-29T21:29:41.423Z,95925.77
2018-04-29T21:32:12.432Z,95929.77
2018-04-29T21:34:43.476Z,95930.69
2018-04-29T21:37:14.478Z,95922.02
2018-04-29T21:39:45.549Z,95917.73
2018-04-29T21:42:16.572Z,95917.66
2018-04-29T21:44:47.637Z,95918.33
2018-04-29T21:47:18.681Z,95915.89
2018-04-29T21:49:49.734Z,95913.64
2018-04-29T21:52:20.766Z,95916.02
2018-04-29T21:54:51.799Z,95915.13
2018-04-29T21:57:22.798Z,95917.41
2018-04-29T21:59:53.849Z,95915.68
2018-04-29T22:02:24.879Z,95913.66
2018-04-29T22:04:55.839Z,95919.52
2018-04-29T22:07:26.858Z,95918.30
2018-04-29T22:09:58.020Z,95919.80
2018-04-29T22:12:29.046Z,95914.07
2018-04-29T22:15:00.020Z,95906.18
2018-04-29T22:17:31.032Z,95907.77
2018-04-29T22:20:02.029Z,95919.16
2018-04-29T22:22:33.022Z,95916.10
2018-04-29T22:25:04.028Z,95918.58
2018-04-29T22:27:35.037Z,95919.63
2018-04-29T22:30:06.045Z,95918.60
2018-04-29T22:32:37.088Z,95918.09
2018-04-29T22:35:08.097Z,95916.52
2018-04-29T22:37:39.135Z,95917.67
2018-04-29T22:40:10.152Z,95920.59
2018-04-29T22:42:41.142Z,95921.39
2018-04-29T22:45:12.137Z,95919.19
2018-04-29T22:47:43.146Z,95915.30
2018-04-29T22:50:14.153Z,95910.06
2018-04-29T22:52:45.190Z,95916.15
2018-04-29T22:55:16.203Z,95910.14
2018-04-29T22:57:47.214Z,95910.31
2018-04-29T23:00:18.228Z,95904.59
2018-04-29T23:02:49.243Z,95898.81
2018-04-29T23:05:20.276Z,95890.25
2018-04-29T23:07:51.233Z,95886.64
2018-04-29T23:10:22.202Z,95880.53
2018-04-29T23:12:53.177Z,95877.45
2018-04-29T23:15:24.166Z,95876.12
2018-04-29T23:17:55.216Z,95879.50
2018-04-29T23:20:26.195Z,95867.80
2018-04-29T23:22:57.210Z,95874.08
2018-04-29T23:25:28.206Z,95874.77
2018-04-29T23:27:59.209Z,95869.48
2018-04-29T23:30:30.200Z,95867.52
2018-04-29T23:33:01.205Z,95859.95
2018-04-29T23:35:32.244Z,95851.70
2018-04-29T23:38:03.287Z,95848.03
2018-04-29T23:40:34.315Z,95843.59
2018-04-29T23:43:05.323Z,95841.45
2018-04-29T23:45:36.317Z,95840.94
2018-04-29T23:48:07.298Z,95835.52
2018-04-29T23:50:38.329Z,95833.48
2018-04-29T23:53:09.354Z,95833.53
2018-04-29T23:55:40.332Z,95836.88
2018-04-29T23:58:11.335Z,95829.77
